Time;durP1;ratioP1;P1;durP2;ratioP2;P2;SDS_P1;SDS_P2;PMS_P1;PMS_P2;Temp;Humidity;BMP_temperature;BMP_pressure;BME280_temperature;BME280_humidity;BME280_pressure;Samples;Min_cycle;Max_cycle;Signal;HPM_P1;HPM_P2
2023/12/05 00:00:31;;;;;;;12.50;12.20;;;3.00;99.90;;;;;;5085394;28;20981;-74
2023/12/05 00:02:58;;;;;;;12.37;12.07;;;3.10;99.90;;;;;;5078195;28;20455;-73
2023/12/05 00:05:24;;;;;;;13.07;12.67;;;3.10;99.90;;;;;;5085571;28;20465;-73
2023/12/05 00:07:52;;;;;;;12.03;11.73;;;3.20;99.90;;;;;;5081598;28;20528;-73
2023/12/05 00:10:18;;;;;;;12.47;12.17;;;3.20;99.90;;;;;;5083068;28;20527;-72
2023/12/05 00:12:45;;;;;;;12.67;12.33;;;3.20;99.90;;;;;;5078183;28;20474;-72
2023/12/05 00:15:12;;;;;;;12.07;11.77;;;3.20;99.90;;;;;;5095780;28;20512;-72
2023/12/05 00:17:40;;;;;;;12.47;12.17;;;3.10;99.90;;;;;;5082094;28;20470;-72
2023/12/05 00:20:08;;;;;;;12.53;12.23;;;3.10;99.90;;;;;;5089164;28;20536;-72
2023/12/05 00:22:35;;;;;;;12.87;12.50;;;3.20;99.90;;;;;;5078709;28;20488;-71
2023/12/05 00:25:02;;;;;;;13.17;12.77;;;3.20;99.90;;;;;;5081871;28;20891;-71
2023/12/05 00:27:29;;;;;;;13.67;13.27;;;3.20;99.90;;;;;;5079737;28;20491;-72
2023/12/05 00:29:56;;;;;;;14.50;14.00;;;3.30;99.90;;;;;;5086702;28;20962;-72
2023/12/05 00:32:24;;;;;;;13.90;13.50;;;3.30;99.90;;;;;;5086573;28;20542;-73
2023/12/05 00:34:52;;;;;;;13.67;13.27;;;3.30;99.90;;;;;;5082658;28;20463;-72
2023/12/05 00:37:19;;;;;;;13.07;12.67;;;3.30;99.90;;;;;;5073151;28;20982;-73
2023/12/05 00:39:46;;;;;;;14.10;13.70;;;3.30;99.90;;;;;;5076410;28;20474;-70
2023/12/05 00:42:13;;;;;;;13.60;13.20;;;3.40;99.90;;;;;;5086061;28;20456;-69
2023/12/05 00:44:40;;;;;;;13.70;13.30;;;3.40;99.90;;;;;;5084699;28;20465;-68
2023/12/05 00:47:06;;;;;;;13.00;12.60;;;3.40;99.90;;;;;;5091766;28;20464;-71
2023/12/05 00:49:34;;;;;;;13.07;12.67;;;3.40;99.90;;;;;;5087797;28;20469;-73
2023/12/05 00:52:02;;;;;;;12.70;12.40;;;3.40;99.90;;;;;;5088767;28;20868;-73
2023/12/05 00:54:29;;;;;;;12.00;11.70;;;3.30;99.90;;;;;;5084063;28;20563;-74
2023/12/05 00:56:56;;;;;;;12.33;12.03;;;3.30;99.90;;;;;;5079909;28;20471;-71
2023/12/05 00:59:23;;;;;;;13.13;12.73;;;3.40;99.90;;;;;;5088408;28;20859;-72
2023/12/05 01:01:50;;;;;;;12.97;12.57;;;3.40;99.90;;;;;;5082948;28;20467;-74
2023/12/05 01:04:18;;;;;;;12.20;11.90;;;3.30;99.90;;;;;;5088110;28;21231;-73
2023/12/05 01:06:44;;;;;;;12.80;12.40;;;3.40;99.90;;;;;;5078841;28;21054;-73
2023/12/05 01:09:13;;;;;;;12.47;12.17;;;3.40;99.90;;;;;;5087894;28;20827;-71
2023/12/05 01:11:41;;;;;;;12.90;12.50;;;3.30;99.90;;;;;;5077811;28;20455;-72
2023/12/05 01:14:08;;;;;;;13.07;12.67;;;3.40;99.90;;;;;;5092085;28;20965;-72
2023/12/05 01:16:36;;;;;;;12.50;12.20;;;3.40;99.90;;;;;;5107372;28;20976;-71
2023/12/05 01:19:03;;;;;;;12.03;11.73;;;3.30;99.90;;;;;;5075469;28;20509;-73
2023/12/05 01:21:29;;;;;;;11.60;11.30;;;3.30;99.90;;;;;;5081668;28;20471;-74
2023/12/05 01:23:56;;;;;;;11.73;11.43;;;3.30;99.90;;;;;;5088192;28;20478;-72
2023/12/05 01:26:24;;;;;;;11.83;11.53;;;3.40;99.90;;;;;;5077814;28;20835;-74
2023/12/05 01:28:51;;;;;;;11.43;11.13;;;3.40;99.90;;;;;;5093163;28;20475;-72
2023/12/05 01:31:19;;;;;;;11.30;11.00;;;3.40;99.90;;;;;;5079874;28;20494;-71
2023/12/05 01:33:46;;;;;;;12.13;11.83;;;3.40;99.90;;;;;;5097784;28;20460;-73
2023/12/05 01:36:13;;;;;;;12.17;11.87;;;3.40;99.90;;;;;;5069769;28;20456;-73
2023/12/05 01:38:40;;;;;;;12.40;12.10;;;3.50;99.90;;;;;;5085384;28;20454;-73
2023/12/05 01:41:07;;;;;;;11.60;11.30;;;3.50;99.90;;;;;;5088018;28;21040;-73
2023/12/05 01:43:50;;;;;;;10.40;10.20;;;3.50;99.90;;;;;;5070684;28;20526;-72
2023/12/05 01:46:20;;;;;;;10.73;10.53;;;3.50;99.90;;;;;;5089041;28;20878;-72
2023/12/05 01:48:47;;;;;;;10.63;10.43;;;3.50;99.90;;;;;;5084248;28;20439;-72
2023/12/05 01:51:16;;;;;;;9.90;9.70;;;3.40;99.90;;;;;;5080635;28;20846;-73
2023/12/05 01:53:43;;;;;;;10.57;10.37;;;3.40;99.90;;;;;;5085580;28;20467;-72
2023/12/05 01:56:13;;;;;;;11.80;11.50;;;3.50;99.90;;;;;;5081177;28;21104;-73
2023/12/05 01:58:41;;;;;;;9.73;9.53;;;3.50;99.90;;;;;;5083753;28;20469;-71
2023/12/05 02:01:09;;;;;;;11.50;11.20;;;3.50;99.90;;;;;;5081209;28;20499;-71
2023/12/05 02:03:37;;;;;;;11.50;11.20;;;3.60;99.90;;;;;;5081638;28;20488;-72
2023/12/05 02:06:05;;;;;;;10.63;10.43;;;3.60;99.90;;;;;;5088320;28;20483;-71
2023/12/05 02:08:33;;;;;;;11.10;10.80;;;3.60;99.90;;;;;;5090372;28;20462;-71
2023/12/05 02:11:00;;;;;;;11.23;10.93;;;3.70;99.90;;;;;;5080516;28;20807;-68
2023/12/05 02:13:28;;;;;;;11.40;11.10;;;3.70;99.90;;;;;;5087725;28;20459;-70
2023/12/05 02:16:03;;;;;;;11.13;10.90;;;3.70;99.90;;;;;;5090053;28;21127;-74
2023/12/05 02:18:37;;;;;;;10.13;9.93;;;3.70;99.90;;;;;;5078196;28;20896;-70
2023/12/05 02:21:11;;;;;;;9.40;9.20;;;3.80;99.90;;;;;;5093436;28;20491;-71
2023/12/05 02:24:00;;;;;;;10.13;9.93;;;3.70;99.90;;;;;;5078087;28;20483;-69
2023/12/05 02:26:36;;;;;;;11.00;10.80;;;3.80;99.90;;;;;;5076826;28;21075;-71
2023/12/05 02:29:04;;;;;;;10.37;10.17;;;3.80;99.90;;;;;;5088843;28;20463;-71
2023/12/05 02:31:31;;;;;;;10.60;10.40;;;3.90;99.90;;;;;;5080551;28;20458;-73
2023/12/05 02:33:59;;;;;;;10.47;10.27;;;3.90;99.90;;;;;;5079233;28;20509;-72
2023/12/05 02:36:31;;;;;;;10.70;10.50;;;3.90;99.90;;;;;;5085451;28;20499;-72
2023/12/05 02:39:12;;;;;;;10.90;10.70;;;3.90;99.90;;;;;;5089989;28;20467;-71
2023/12/05 02:41:45;;;;;;;10.90;10.70;;;3.90;99.90;;;;;;5090846;28;21151;-71
2023/12/05 02:44:16;;;;;;;10.57;10.37;;;4.00;99.90;;;;;;5084571;28;20450;-72
2023/12/05 02:46:45;;;;;;;10.43;10.23;;;4.00;99.90;;;;;;5085808;28;20494;-73
2023/12/05 02:49:12;;;;;;;10.30;10.10;;;4.00;99.90;;;;;;5085640;28;20470;-72
2023/12/05 02:51:39;;;;;;;10.53;10.33;;;4.00;99.90;;;;;;5074747;28;20775;-74
2023/12/05 02:54:06;;;;;;;10.60;10.40;;;4.00;99.90;;;;;;5086676;28;20466;-72
2023/12/05 02:56:34;;;;;;;10.43;10.23;;;4.10;99.90;;;;;;5087850;28;20487;-72
2023/12/05 02:59:01;;;;;;;11.00;10.80;;;4.00;99.90;;;;;;5072025;28;20459;-72
2023/12/05 03:01:29;;;;;;;11.50;11.20;;;4.10;99.90;;;;;;5078488;28;20894;-73
2023/12/05 03:03:56;;;;;;;10.47;10.27;;;4.10;99.90;;;;;;5087049;28;20542;-71
2023/12/05 03:06:24;;;;;;;11.73;11.43;;;4.10;99.90;;;;;;5086388;28;20470;-71
2023/12/05 03:08:50;;;;;;;11.67;11.37;;;4.10;99.90;;;;;;5078107;28;20513;-71
2023/12/05 03:11:18;;;;;;;11.60;11.30;;;4.10;99.90;;;;;;5085397;28;20464;-72
2023/12/05 03:13:45;;;;;;;11.90;11.60;;;4.10;99.90;;;;;;5086782;28;20463;-71
2023/12/05 03:16:12;;;;;;;10.80;10.60;;;4.10;99.90;;;;;;5104987;28;20453;-70
2023/12/05 03:18:41;;;;;;;10.83;10.63;;;4.10;99.90;;;;;;5077872;28;20461;-70
2023/12/05 03:21:08;;;;;;;10.33;10.13;;;4.10;99.90;;;;;;5090044;28;20478;-72
2023/12/05 03:23:35;;;;;;;10.73;10.53;;;4.10;99.90;;;;;;5083796;28;20879;-70
2023/12/05 03:26:02;;;;;;;10.60;10.40;;;4.10;99.90;;;;;;5075783;28;20463;-72
2023/12/05 03:28:29;;;;;;;10.27;10.07;;;4.10;99.90;;;;;;5094463;28;20485;-71
2023/12/05 03:30:56;;;;;;;10.13;9.93;;;4.10;99.90;;;;;;5077077;28;20455;-71
2023/12/05 03:33:24;;;;;;;9.93;9.73;;;4.10;99.90;;;;;;5087453;28;20824;-73
2023/12/05 03:35:52;;;;;;;11.00;10.80;;;4.10;99.90;;;;;;5079357;28;20543;-74
2023/12/05 03:38:19;;;;;;;9.47;9.27;;;4.20;99.90;;;;;;5080954;28;20463;-71
2023/12/05 03:40:46;;;;;;;10.07;9.87;;;4.20;99.90;;;;;;5089931;28;20502;-72
2023/12/05 03:43:13;;;;;;;9.83;9.63;;;4.20;99.90;;;;;;5082128;28;20456;-73
2023/12/05 03:45:39;;;;;;;10.03;9.83;;;4.20;99.90;;;;;;5086920;28;20460;-73
2023/12/05 03:48:06;;;;;;;10.07;9.87;;;4.20;99.90;;;;;;5089705;28;20457;-72
2023/12/05 03:50:33;;;;;;;10.17;9.97;;;4.30;99.90;;;;;;5090005;28;20945;-73
2023/12/05 03:53:03;;;;;;;9.80;9.60;;;4.30;99.90;;;;;;5070189;28;20567;-74
2023/12/05 03:55:31;;;;;;;10.20;10.00;;;4.20;99.90;;;;;;5087869;28;20459;-72
2023/12/05 03:57:58;;;;;;;9.93;9.73;;;4.30;99.90;;;;;;5079900;28;20989;-70
2023/12/05 04:00:25;;;;;;;10.33;10.13;;;4.40;99.90;;;;;;5088692;28;21001;-73
2023/12/05 04:02:51;;;;;;;9.93;9.73;;;4.30;99.90;;;;;;5081413;28;20461;-72
2023/12/05 04:05:19;;;;;;;9.43;9.23;;;4.30;99.90;;;;;;5083087;28;20463;-72
2023/12/05 04:07:46;;;;;;;9.63;9.43;;;4.30;99.90;;;;;;5073024;28;20473;-74
2023/12/05 04:10:16;;;;;;;9.53;9.33;;;4.30;99.90;;;;;;5074502;28;20467;-70
2023/12/05 04:12:42;;;;;;;9.33;9.13;;;4.40;99.90;;;;;;5086388;28;20471;-72
2023/12/05 04:15:10;;;;;;;10.20;10.00;;;4.40;99.90;;;;;;5092116;28;20474;-70
2023/12/05 04:17:37;;;;;;;9.27;9.07;;;4.40;99.90;;;;;;5099517;28;20455;-71
2023/12/05 04:20:05;;;;;;;9.20;9.00;;;4.30;99.90;;;;;;5086093;28;20467;-70
2023/12/05 04:22:32;;;;;;;9.40;9.20;;;4.30;99.90;;;;;;5080171;28;20472;-72
2023/12/05 04:24:59;;;;;;;10.00;9.80;;;4.40;99.90;;;;;;5073441;28;20497;-73
2023/12/05 04:27:27;;;;;;;9.57;9.37;;;4.40;99.90;;;;;;5078333;28;20474;-73
2023/12/05 04:29:53;;;;;;;9.20;9.00;;;4.40;99.90;;;;;;5084182;28;20925;-72
2023/12/05 04:32:21;;;;;;;9.27;9.07;;;4.40;99.90;;;;;;5079851;28;20467;-73
2023/12/05 04:34:48;;;;;;;9.67;9.47;;;4.50;99.90;;;;;;5083775;28;20463;-71
2023/12/05 04:37:15;;;;;;;9.17;8.97;;;4.50;99.90;;;;;;5080431;28;20462;-72
2023/12/05 04:39:42;;;;;;;9.20;9.00;;;4.50;99.90;;;;;;5089160;28;20460;-70
2023/12/05 04:42:09;;;;;;;9.50;9.30;;;4.50;99.90;;;;;;5077685;28;20490;-70
2023/12/05 04:44:37;;;;;;;9.50;9.30;;;4.40;99.90;;;;;;5081275;28;20832;-73
2023/12/05 04:47:04;;;;;;;9.63;9.43;;;4.40;99.90;;;;;;5079915;28;20522;-71
2023/12/05 04:49:34;;;;;;;9.57;9.37;;;4.50;99.90;;;;;;5085306;28;20459;-70
2023/12/05 04:52:01;;;;;;;9.73;9.53;;;4.50;99.90;;;;;;5088718;28;20455;-71
2023/12/05 04:54:28;;;;;;;9.90;9.70;;;4.50;99.90;;;;;;5084678;28;20459;-73
2023/12/05 04:56:54;;;;;;;10.03;9.83;;;4.50;99.90;;;;;;5078142;28;20521;-70
2023/12/05 04:59:21;;;;;;;9.50;9.30;;;4.50;99.90;;;;;;5088800;28;20463;-73
2023/12/05 05:01:50;;;;;;;10.27;10.07;;;4.50;99.90;;;;;;5082527;28;20501;-73
2023/12/05 05:04:17;;;;;;;10.60;10.40;;;4.60;99.90;;;;;;5073026;28;20466;-71
2023/12/05 05:06:43;;;;;;;10.60;10.40;;;4.60;99.90;;;;;;5076802;28;20489;-73
2023/12/05 05:09:10;;;;;;;10.70;10.50;;;4.60;99.90;;;;;;5081458;28;20472;-73
2023/12/05 05:11:37;;;;;;;11.00;10.80;;;4.60;99.90;;;;;;5074226;28;20451;-70
2023/12/05 05:14:04;;;;;;;11.20;10.93;;;4.70;99.90;;;;;;5074805;28;20585;-73
2023/12/05 05:16:31;;;;;;;10.80;10.60;;;4.70;99.90;;;;;;5080899;28;20983;-71
2023/12/05 05:18:59;;;;;;;10.43;10.23;;;4.70;99.90;;;;;;5068593;28;20463;-70
2023/12/05 05:21:27;;;;;;;10.67;10.47;;;4.70;99.90;;;;;;5084973;28;21033;-71
2023/12/05 05:23:54;;;;;;;10.90;10.70;;;4.70;99.90;;;;;;5081859;28;20494;-71
2023/12/05 05:26:20;;;;;;;11.57;11.27;;;4.70;99.90;;;;;;5077982;28;20464;-71
2023/12/05 05:28:47;;;;;;;10.90;10.70;;;4.80;99.90;;;;;;5086957;28;21132;-73
2023/12/05 05:31:14;;;;;;;10.60;10.40;;;4.80;99.90;;;;;;5078932;28;20850;-73
2023/12/05 05:33:41;;;;;;;10.53;10.33;;;4.80;99.90;;;;;;5085098;28;20822;-73
2023/12/05 05:36:11;;;;;;;11.07;10.83;;;4.90;99.90;;;;;;5082832;28;20469;-71
2023/12/05 05:38:38;;;;;;;11.57;11.27;;;4.90;99.90;;;;;;5086688;28;20860;-74
2023/12/05 05:41:06;;;;;;;11.10;10.80;;;4.90;99.90;;;;;;5084173;28;20859;-70
2023/12/05 05:43:32;;;;;;;11.17;10.87;;;4.90;99.90;;;;;;5079637;28;20462;-73
2023/12/05 05:46:00;;;;;;;11.40;11.10;;;4.90;99.90;;;;;;5096444;28;20454;-70
2023/12/05 05:48:27;;;;;;;11.50;11.20;;;4.90;99.90;;;;;;5087189;28;20800;-70
2023/12/05 05:50:54;;;;;;;10.87;10.67;;;5.00;99.90;;;;;;5080658;28;20462;-73
2023/12/05 05:53:23;;;;;;;10.93;10.73;;;5.00;99.90;;;;;;5077958;28;21092;-73
2023/12/05 05:55:49;;;;;;;11.53;11.23;;;5.00;99.90;;;;;;5080315;28;20460;-74
2023/12/05 05:58:17;;;;;;;11.80;11.50;;;5.10;99.90;;;;;;5089838;28;20464;-72
2023/12/05 06:00:44;;;;;;;12.20;11.90;;;5.10;99.90;;;;;;5079038;28;20510;-71
2023/12/05 06:03:11;;;;;;;11.70;11.40;;;5.10;99.90;;;;;;5086233;28;20455;-72
2023/12/05 06:05:39;;;;;;;12.10;11.80;;;5.10;99.90;;;;;;5076990;28;20455;-73
2023/12/05 06:08:05;;;;;;;11.90;11.60;;;5.10;99.90;;;;;;5079185;28;21120;-73
2023/12/05 06:10:35;;;;;;;12.70;12.40;;;5.20;99.90;;;;;;5089810;28;20454;-72
2023/12/05 06:13:02;;;;;;;11.97;11.67;;;5.20;99.90;;;;;;5082016;28;20575;-71
2023/12/05 06:15:29;;;;;;;12.20;11.90;;;5.30;99.90;;;;;;5078041;28;20454;-71
2023/12/05 06:17:55;;;;;;;12.40;12.10;;;5.30;99.90;;;;;;5077836;28;21169;-71
2023/12/05 06:20:23;;;;;;;12.07;11.77;;;5.30;99.90;;;;;;5080978;28;20805;-74
2023/12/05 06:22:50;;;;;;;11.77;11.47;;;5.30;99.90;;;;;;5079385;28;20891;-72
2023/12/05 06:25:16;;;;;;;12.20;11.90;;;5.30;99.90;;;;;;5087792;28;20483;-72
2023/12/05 06:27:46;;;;;;;12.80;12.40;;;5.30;99.90;;;;;;5077859;28;20454;-72
2023/12/05 06:30:14;;;;;;;12.13;11.83;;;5.30;99.90;;;;;;5074344;28;20485;-73
2023/12/05 06:32:41;;;;;;;12.07;11.77;;;5.30;99.90;;;;;;5074762;28;20962;-72
2023/12/05 06:35:08;;;;;;;12.93;12.53;;;5.30;99.90;;;;;;5084815;28;20454;-73
2023/12/05 06:37:35;;;;;;;12.97;12.57;;;5.40;99.90;;;;;;5075897;28;20458;-74
2023/12/05 06:40:03;;;;;;;13.20;12.80;;;5.40;99.90;;;;;;5088632;28;20895;-72
2023/12/05 06:42:31;;;;;;;12.70;12.40;;;5.40;99.90;;;;;;5087957;28;20536;-71
2023/12/05 06:44:59;;;;;;;13.17;12.77;;;5.30;99.90;;;;;;5074535;28;20840;-70
2023/12/05 06:47:27;;;;;;;13.07;12.67;;;5.40;99.90;;;;;;5084767;28;20458;-74
2023/12/05 06:49:54;;;;;;;13.03;12.63;;;5.40;99.90;;;;;;5089269;28;20451;-73
2023/12/05 06:52:21;;;;;;;12.77;12.37;;;5.40;99.90;;;;;;5074667;28;20473;-72
2023/12/05 06:54:48;;;;;;;13.33;12.93;;;5.40;99.90;;;;;;5075691;28;20465;-71
2023/12/05 06:57:15;;;;;;;13.27;12.87;;;5.40;99.90;;;;;;5075614;28;20475;-71
2023/12/05 06:59:43;;;;;;;13.03;12.63;;;5.40;99.90;;;;;;5087794;28;20479;-74
2023/12/05 07:02:11;;;;;;;13.00;12.60;;;5.40;99.90;;;;;;5079261;28;20909;-71
2023/12/05 07:04:38;;;;;;;13.30;12.90;;;5.40;99.90;;;;;;5085715;28;20461;-74
2023/12/05 07:07:06;;;;;;;13.60;13.20;;;5.40;99.90;;;;;;5087447;28;20474;-72
2023/12/05 07:09:34;;;;;;;12.90;12.50;;;5.40;99.90;;;;;;5074135;28;21286;-74
2023/12/05 07:12:00;;;;;;;12.60;12.30;;;5.40;99.90;;;;;;5076785;28;20469;-74
2023/12/05 07:14:27;;;;;;;13.30;12.90;;;5.40;99.90;;;;;;5074925;28;20459;-72
2023/12/05 07:16:55;;;;;;;13.20;12.80;;;5.40;99.90;;;;;;5086413;28;20495;-73
2023/12/05 07:19:23;;;;;;;13.40;13.00;;;5.40;99.90;;;;;;5079826;28;20465;-69
2023/12/05 07:21:50;;;;;;;13.10;12.70;;;5.40;99.90;;;;;;5088029;28;20870;-71
2023/12/05 07:24:17;;;;;;;13.30;12.90;;;5.50;99.90;;;;;;5078296;28;20486;-72
2023/12/05 07:26:46;;;;;;;12.50;12.20;;;5.50;99.90;;;;;;5095251;28;20462;-73
2023/12/05 07:29:13;;;;;;;13.10;12.70;;;5.50;99.90;;;;;;5080498;28;20455;-70
2023/12/05 07:31:41;;;;;;;12.60;12.30;;;5.50;99.90;;;;;;5082807;28;20469;-71
2023/12/05 07:34:07;;;;;;;13.00;12.60;;;5.50;99.90;;;;;;5082243;28;20465;-73
2023/12/05 07:36:40;;;;;;;12.80;12.43;;;5.50;99.90;;;;;;5077995;28;20447;-71
2023/12/05 07:39:07;;;;;;;13.10;12.70;;;5.50;99.90;;;;;;5077591;28;21632;-72
2023/12/05 07:41:34;;;;;;;13.33;12.93;;;5.50;99.90;;;;;;5072261;28;20582;-73
2023/12/05 07:44:01;;;;;;;13.40;13.00;;;5.50;99.90;;;;;;5080653;28;20462;-72
2023/12/05 07:46:28;;;;;;;13.20;12.80;;;5.50;99.90;;;;;;5080685;28;20466;-71
2023/12/05 07:48:54;;;;;;;13.87;13.47;;;5.60;99.90;;;;;;5077162;28;20501;-70
2023/12/05 07:51:21;;;;;;;13.33;12.93;;;5.70;99.90;;;;;;5071350;28;20455;-71
2023/12/05 07:53:52;;;;;;;13.77;13.37;;;5.70;99.90;;;;;;5076771;28;21041;-73
2023/12/05 07:56:19;;;;;;;12.87;12.47;;;5.70;99.90;;;;;;5076171;28;20544;-73
2023/12/05 07:58:46;;;;;;;12.67;12.37;;;5.70;99.90;;;;;;5079137;28;20490;-72
2023/12/05 08:01:14;;;;;;;12.40;12.10;;;5.70;99.90;;;;;;5088303;28;20466;-73
2023/12/05 08:03:41;;;;;;;13.20;12.80;;;5.70;99.90;;;;;;5088582;28;20473;-73
2023/12/05 08:06:09;;;;;;;13.27;12.87;;;5.80;99.90;;;;;;5087886;28;20458;-73
2023/12/05 08:08:36;;;;;;;13.33;12.93;;;5.80;99.90;;;;;;5077974;28;20545;-71
2023/12/05 08:11:06;;;;;;;12.60;12.30;;;5.90;99.90;;;;;;5073133;28;20466;-72
2023/12/05 08:13:33;;;;;;;12.90;12.50;;;5.90;99.90;;;;;;5076865;28;20458;-72
2023/12/05 08:16:00;;;;;;;13.03;12.63;;;5.90;99.90;;;;;;5090103;28;20539;-73
2023/12/05 08:18:26;;;;;;;12.73;12.37;;;5.80;99.90;;;;;;5086007;28;20468;-71
2023/12/05 08:20:54;;;;;;;12.57;12.27;;;5.90;99.90;;;;;;5073480;28;20981;-70
2023/12/05 08:23:21;;;;;;;12.87;12.47;;;5.80;99.90;;;;;;5079902;28;21028;-73
2023/12/05 08:25:50;;;;;;;12.80;12.40;;;5.90;99.90;;;;;;5069095;28;21014;-71
2023/12/05 08:28:18;;;;;;;13.70;13.30;;;5.90;99.90;;;;;;5070964;28;20465;-71
2023/12/05 08:30:45;;;;;;;13.17;12.77;;;6.00;99.90;;;;;;5073880;28;20465;-72
2023/12/05 08:33:12;;;;;;;13.20;12.80;;;6.00;99.90;;;;;;5075549;28;20470;-71
2023/12/05 08:35:40;;;;;;;13.10;12.70;;;6.00;99.90;;;;;;5074534;28;20837;-73
2023/12/05 08:38:07;;;;;;;12.13;11.83;;;6.00;99.90;;;;;;5076517;28;21039;-73
2023/12/05 08:40:35;;;;;;;13.43;13.03;;;6.10;99.90;;;;;;5071007;28;20956;-71
2023/12/05 08:43:03;;;;;;;13.10;12.70;;;6.10;99.90;;;;;;5074925;28;20780;-72
2023/12/05 08:45:32;;;;;;;12.97;12.57;;;6.10;99.90;;;;;;5072697;28;20458;-72
2023/12/05 08:47:59;;;;;;;12.80;12.40;;;6.10;99.90;;;;;;5075279;28;20493;-73
2023/12/05 08:50:26;;;;;;;12.17;11.87;;;6.10;99.90;;;;;;5071239;28;20471;-71
2023/12/05 08:52:52;;;;;;;12.30;12.00;;;6.10;99.90;;;;;;5074586;28;20476;-71
2023/12/05 08:55:20;;;;;;;13.00;12.60;;;6.10;99.90;;;;;;5071630;28;20557;-73
2023/12/05 08:57:46;;;;;;;12.90;12.50;;;6.10;99.90;;;;;;5076209;28;20455;-70
2023/12/05 09:00:14;;;;;;;12.33;12.03;;;6.10;99.90;;;;;;5073179;28;20461;-74
2023/12/05 09:02:42;;;;;;;13.27;12.87;;;6.10;99.90;;;;;;5074225;28;20486;-71
2023/12/05 09:05:09;;;;;;;13.00;12.60;;;6.10;99.90;;;;;;5070448;28;21007;-70
2023/12/05 09:07:36;;;;;;;12.87;12.47;;;6.20;99.90;;;;;;5076182;28;20466;-73
2023/12/05 09:10:03;;;;;;;12.80;12.40;;;6.10;99.90;;;;;;5076157;28;20887;-72
2023/12/05 09:12:30;;;;;;;13.00;12.60;;;6.20;99.90;;;;;;5072487;28;20592;-72
2023/12/05 09:14:56;;;;;;;13.33;12.93;;;6.20;99.90;;;;;;5076877;28;20463;-71
2023/12/05 09:17:24;;;;;;;13.13;12.73;;;6.30;99.90;;;;;;5076921;28;20477;-72
2023/12/05 09:19:52;;;;;;;13.30;12.90;;;6.30;99.90;;;;;;5064111;28;21054;-72
2023/12/05 09:22:20;;;;;;;13.40;13.00;;;6.30;99.90;;;;;;5072205;28;20521;-73
2023/12/05 09:24:48;;;;;;;13.30;12.90;;;6.30;99.90;;;;;;5074767;28;20568;-73
2023/12/05 09:27:14;;;;;;;13.80;13.40;;;6.30;99.90;;;;;;5073139;28;20495;-74
2023/12/05 09:29:41;;;;;;;13.43;13.03;;;6.30;99.90;;;;;;5072385;28;20462;-70
2023/12/05 09:32:08;;;;;;;12.77;12.37;;;6.40;99.90;;;;;;5068598;28;21114;-74
2023/12/05 09:34:35;;;;;;;12.90;12.50;;;6.30;99.90;;;;;;5074037;28;20467;-75
2023/12/05 09:37:03;;;;;;;13.13;12.73;;;6.40;99.90;;;;;;5074752;28;20464;-73
2023/12/05 09:39:31;;;;;;;13.10;12.70;;;6.40;99.90;;;;;;5071848;28;20471;-75
2023/12/05 09:42:02;;;;;;;13.10;12.70;;;6.50;99.90;;;;;;5073216;28;20494;-71
2023/12/05 09:44:32;;;;;;;13.30;12.90;;;6.50;99.90;;;;;;5067157;28;20469;-73
2023/12/05 09:47:04;;;;;;;13.00;12.60;;;6.50;99.90;;;;;;5072189;28;20466;-72
2023/12/05 09:49:32;;;;;;;13.27;12.87;;;6.50;99.90;;;;;;5075146;28;20512;-73
2023/12/05 09:52:01;;;;;;;12.57;12.27;;;6.60;99.90;;;;;;5076300;28;20473;-70
2023/12/05 09:54:30;;;;;;;12.40;12.10;;;6.60;99.90;;;;;;5067809;28;20470;-71
2023/12/05 09:56:59;;;;;;;12.60;12.30;;;6.60;99.90;;;;;;5067152;28;20466;-70
2023/12/05 09:59:26;;;;;;;12.93;12.53;;;6.60;99.90;;;;;;5068118;28;20554;-73
2023/12/05 10:01:56;;;;;;;13.20;12.80;;;6.70;99.90;;;;;;5075579;28;20993;-73
2023/12/05 10:04:28;;;;;;;12.80;12.40;;;6.70;99.90;;;;;;5074231;28;20459;-73
2023/12/05 10:06:57;;;;;;;13.33;12.93;;;6.80;99.90;;;;;;5071173;28;20466;-71
2023/12/05 10:09:25;;;;;;;13.00;12.60;;;6.90;99.90;;;;;;5076928;28;20702;-71
2023/12/05 10:11:54;;;;;;;12.97;12.57;;;6.90;99.90;;;;;;5070557;28;20469;-74
2023/12/05 10:14:21;;;;;;;13.20;12.80;;;6.90;99.90;;;;;;5071271;28;20470;-73
2023/12/05 10:16:49;;;;;;;13.50;13.10;;;6.90;99.90;;;;;;5078156;28;20789;-72
2023/12/05 10:19:17;;;;;;;13.07;12.67;;;6.90;99.90;;;;;;5078262;28;20916;-72
2023/12/05 10:21:44;;;;;;;13.40;13.00;;;6.90;99.90;;;;;;5078609;28;20464;-72
2023/12/05 10:24:11;;;;;;;12.50;12.20;;;7.00;99.90;;;;;;5078351;28;20490;-71
2023/12/05 10:26:45;;;;;;;13.20;12.80;;;7.00;99.90;;;;;;5073614;28;20505;-73
2023/12/05 10:29:14;;;;;;;13.77;13.37;;;7.00;99.90;;;;;;5072833;28;20899;-74
2023/12/05 10:31:41;;;;;;;13.03;12.63;;;7.00;99.90;;;;;;5078367;28;20481;-70
2023/12/05 10:34:08;;;;;;;13.87;13.47;;;6.90;99.90;;;;;;5061456;28;20459;-70
2023/12/05 10:36:36;;;;;;;13.13;12.73;;;7.00;99.90;;;;;;5076579;28;20467;-72
2023/12/05 10:39:03;;;;;;;13.57;13.17;;;7.00;99.90;;;;;;5079168;28;20501;-70
2023/12/05 10:41:30;;;;;;;14.13;13.63;;;7.00;99.90;;;;;;5076929;28;20496;-69
2023/12/05 10:43:57;;;;;;;14.23;13.73;;;7.10;99.90;;;;;;5072218;28;20506;-72
2023/12/05 10:46:27;;;;;;;13.70;13.30;;;7.10;99.90;;;;;;5076034;28;20485;-71
2023/12/05 10:48:54;;;;;;;13.43;13.03;;;7.10;99.90;;;;;;5078859;28;20477;-74
2023/12/05 10:51:21;;;;;;;14.30;13.80;;;7.10;99.90;;;;;;5078391;28;20468;-74
2023/12/05 10:53:48;;;;;;;14.40;13.90;;;7.30;99.90;;;;;;5078155;28;20484;-70
2023/12/05 10:56:17;;;;;;;14.10;13.60;;;7.40;99.90;;;;;;5079266;28;20471;-71
2023/12/05 10:58:44;;;;;;;14.43;13.93;;;7.50;99.90;;;;;;5071923;28;20462;-73
2023/12/05 11:01:12;;;;;;;14.70;14.20;;;7.50;99.90;;;;;;5073965;28;21094;-71
2023/12/05 11:03:41;;;;;;;14.67;14.17;;;7.60;99.90;;;;;;5078694;28;20998;-73
2023/12/05 11:06:09;;;;;;;14.73;14.23;;;7.60;99.90;;;;;;5075172;28;20495;-74
2023/12/05 11:08:36;;;;;;;14.07;13.57;;;7.70;99.90;;;;;;5078112;28;20470;-73
2023/12/05 11:11:04;;;;;;;14.67;14.17;;;7.60;99.90;;;;;;5074059;28;20558;-74
2023/12/05 11:13:33;;;;;;;15.23;14.67;;;7.60;99.90;;;;;;5078290;28;20467;-75
2023/12/05 11:16:03;;;;;;;14.70;14.20;;;7.70;99.90;;;;;;5077281;28;20467;-74
2023/12/05 11:18:36;;;;;;;14.73;14.23;;;7.70;99.90;;;;;;5078390;28;20554;-74
2023/12/05 11:21:19;;;;;;;14.87;14.37;;;7.70;99.90;;;;;;5072966;28;20451;-71
2023/12/05 11:24:01;;;;;;;14.77;14.27;;;7.70;99.90;;;;;;5079714;28;20591;-72
2023/12/05 11:26:55;;;;;;;14.13;13.63;;;7.70;99.90;;;;;;5070302;28;20455;-74
2023/12/05 11:29:39;;;;;;;15.07;14.57;;;7.70;99.90;;;;;;5077354;28;20459;-71
2023/12/05 11:32:15;;;;;;;14.80;14.30;;;7.70;99.90;;;;;;5072027;28;20505;-74
2023/12/05 11:34:59;;;;;;;15.77;15.17;;;7.70;99.90;;;;;;5075301;28;20470;-74
2023/12/05 11:37:41;;;;;;;16.17;15.57;;;7.80;99.90;;;;;;5075814;28;20462;-75
2023/12/05 11:40:09;;;;;;;15.40;14.80;;;7.90;99.90;;;;;;5073718;28;20820;-72
2023/12/05 11:42:36;;;;;;;15.60;15.00;;;7.80;99.90;;;;;;5075454;28;20471;-71
2023/12/05 11:45:21;;;;;;;16.50;15.80;;;7.80;99.90;;;;;;5071495;28;20988;-73
2023/12/05 11:47:48;;;;;;;16.77;16.07;;;8.00;99.90;;;;;;5078857;28;20456;-71
2023/12/05 11:50:16;;;;;;;15.77;15.17;;;8.10;99.90;;;;;;5072705;28;20474;-70
2023/12/05 11:52:44;;;;;;;15.57;14.97;;;8.10;99.90;;;;;;5075680;28;20554;-71
2023/12/05 11:55:13;;;;;;;15.37;14.77;;;8.00;99.90;;;;;;5076596;28;20471;-74
2023/12/05 11:57:41;;;;;;;14.73;14.23;;;8.10;99.90;;;;;;5072063;28;20475;-70
2023/12/05 12:00:09;;;;;;;15.30;14.70;;;8.10;99.90;;;;;;5072235;28;20466;-71
2023/12/05 12:02:44;;;;;;;14.70;14.20;;;8.10;99.90;;;;;;5069689;28;20521;-70
2023/12/05 12:05:12;;;;;;;14.90;14.40;;;8.10;99.90;;;;;;5076770;28;20458;-71
2023/12/05 12:07:50;;;;;;;14.03;13.53;;;8.00;99.90;;;;;;5074972;28;21821;-75
2023/12/05 12:10:17;;;;;;;14.13;13.63;;;7.90;99.90;;;;;;5075367;28;20765;-74
2023/12/05 12:12:44;;;;;;;13.80;13.40;;;8.00;99.90;;;;;;5073491;28;21529;-73
2023/12/05 12:15:11;;;;;;;13.80;13.40;;;7.90;99.90;;;;;;5074913;28;20552;-74
2023/12/05 12:17:42;;;;;;;14.30;13.80;;;8.00;99.90;;;;;;5075672;28;20470;-73
2023/12/05 12:20:12;;;;;;;13.60;13.20;;;7.90;99.90;;;;;;5068811;28;20465;-75
2023/12/05 12:22:38;;;;;;;13.70;13.30;;;7.70;99.90;;;;;;5077281;28;20600;-72
2023/12/05 12:25:11;;;;;;;14.10;13.60;;;7.80;99.90;;;;;;5074325;28;20857;-75
2023/12/05 12:27:40;;;;;;;13.60;13.20;;;7.90;99.90;;;;;;5078433;28;21260;-73
2023/12/05 12:30:09;;;;;;;13.90;13.50;;;7.90;99.90;;;;;;5072496;28;20917;-71
2023/12/05 12:32:36;;;;;;;13.17;12.77;;;7.90;99.90;;;;;;5070506;28;20561;-71
2023/12/05 12:35:05;;;;;;;13.17;12.77;;;7.90;99.90;;;;;;5077770;28;20503;-71
2023/12/05 12:37:32;;;;;;;13.47;13.07;;;7.80;99.90;;;;;;5070184;28;20969;-73
2023/12/05 12:40:00;;;;;;;12.90;12.50;;;7.70;99.90;;;;;;5077660;28;20461;-74
2023/12/05 12:42:30;;;;;;;12.47;12.17;;;7.80;99.90;;;;;;5075511;28;20816;-74